Time;durP1;ratioP1;P1;durP2;ratioP2;P2;SDS_P1;SDS_P2;PMS_P1;PMS_P2;Temp;Humidity;BMP_temperature;BMP_pressure;BME280_temperature;BME280_humidity;BME280_pressure;Samples;Min_cycle;Max_cycle;Signal;HPM_P1;HPM_P2
2021/09/22 00:00:23;;;;;;;13.65;7.18;;;11.10;84.10;;;;;;5054333;28;20100;-37
2021/09/22 00:02:49;;;;;;;10.80;6.00;;;11.10;84.00;;;;;;5054167;28;20604;-37
2021/09/22 00:05:15;;;;;;;13.52;7.18;;;11.00;84.20;;;;;;5053901;28;20028;-37
2021/09/22 00:07:41;;;;;;;8.43;6.03;;;11.00;84.30;;;;;;5052584;28;20021;-36
2021/09/22 00:10:10;;;;;;;14.07;8.73;;;11.00;84.40;;;;;;5054056;28;20029;-36
2021/09/22 00:12:36;;;;;;;12.45;7.30;;;10.90;84.70;;;;;;5052322;28;20100;-36
2021/09/22 00:15:04;;;;;;;17.75;8.30;;;10.80;85.40;;;;;;5053778;28;20117;-36
2021/09/22 00:17:29;;;;;;;18.15;6.95;;;10.70;85.70;;;;;;5053781;28;20447;-37
2021/09/22 00:19:55;;;;;;;13.77;7.20;;;10.70;85.50;;;;;;5053851;28;20116;-37
2021/09/22 00:22:21;;;;;;;8.80;6.47;;;10.70;85.60;;;;;;5053823;28;20040;-36
2021/09/22 00:24:46;;;;;;;10.13;6.65;;;10.70;85.50;;;;;;5053385;28;20331;-36
2021/09/22 00:27:12;;;;;;;9.07;6.55;;;10.70;85.50;;;;;;5053651;28;20025;-37
2021/09/22 00:29:38;;;;;;;9.05;6.30;;;10.60;85.50;;;;;;5053674;28;20056;-36
2021/09/22 00:32:04;;;;;;;9.95;6.40;;;10.70;85.50;;;;;;5053427;28;20021;-36
2021/09/22 00:34:29;;;;;;;8.52;6.63;;;10.70;85.60;;;;;;5053344;28;20036;-36
2021/09/22 00:36:55;;;;;;;11.82;6.97;;;10.70;85.60;;;;;;5051987;28;20223;-37
2021/09/22 00:39:20;;;;;;;12.25;6.60;;;10.80;85.50;;;;;;5053263;28;20048;-37
2021/09/22 00:41:46;;;;;;;13.02;6.30;;;10.70;85.30;;;;;;5053413;28;20358;-36
2021/09/22 00:44:12;;;;;;;13.60;7.25;;;10.60;85.40;;;;;;5053267;28;20082;-37
2021/09/22 00:46:38;;;;;;;8.80;5.88;;;10.60;85.50;;;;;;5053314;28;20037;-36
2021/09/22 00:49:03;;;;;;;13.77;7.00;;;10.60;85.70;;;;;;5053076;28;20457;-36
2021/09/22 00:51:29;;;;;;;12.48;7.00;;;10.60;85.60;;;;;;5053157;28;20028;-37
2021/09/22 00:53:54;;;;;;;12.35;6.97;;;10.60;85.60;;;;;;5053219;28;20082;-36
2021/09/22 00:56:21;;;;;;;17.35;7.82;;;10.60;85.60;;;;;;5053277;28;20106;-36
2021/09/22 00:58:47;;;;;;;14.00;7.55;;;10.50;85.60;;;;;;5053049;28;20047;-36
2021/09/22 01:01:13;;;;;;;11.68;6.13;;;10.50;85.80;;;;;;5052851;28;20483;-36
2021/09/22 01:03:39;;;;;;;11.63;7.30;;;10.50;86.10;;;;;;5052602;28;20090;-36
2021/09/22 01:06:05;;;;;;;10.30;6.95;;;10.50;86.20;;;;;;5053216;28;20397;-36
2021/09/22 01:08:32;;;;;;;13.57;7.43;;;10.60;86.20;;;;;;5051209;28;20025;-37
2021/09/22 01:10:58;;;;;;;11.13;7.50;;;10.60;85.50;;;;;;5052556;28;20075;-37
2021/09/22 01:13:25;;;;;;;15.38;7.88;;;10.60;85.70;;;;;;5052594;28;20558;-36
2021/09/22 01:15:51;;;;;;;12.32;6.88;;;10.60;85.60;;;;;;5052754;28;20475;-36
2021/09/22 01:18:22;;;;;;;8.57;6.63;;;10.60;85.80;;;;;;5052167;28;20049;-36
2021/09/22 01:20:53;;;;;;;12.10;7.25;;;10.50;85.80;;;;;;5052337;28;20029;-40
2021/09/22 01:23:20;;;;;;;15.40;7.37;;;10.50;85.70;;;;;;5052512;28;20108;-36
2021/09/22 01:25:47;;;;;;;10.63;6.85;;;10.50;85.90;;;;;;5052302;28;20036;-36
2021/09/22 01:28:16;;;;;;;9.52;6.47;;;10.50;86.00;;;;;;5052348;28;20469;-36
2021/09/22 01:30:42;;;;;;;11.65;6.75;;;10.50;85.90;;;;;;5052371;28;20017;-36
2021/09/22 01:33:10;;;;;;;11.50;6.57;;;10.30;85.80;;;;;;5050998;28;20017;-36
2021/09/22 01:35:39;;;;;;;10.45;6.65;;;10.40;86.00;;;;;;5052438;28;20072;-37
2021/09/22 01:38:11;;;;;;;14.32;7.90;;;10.40;85.80;;;;;;5052128;28;20032;-36
2021/09/22 01:40:37;;;;;;;12.23;7.28;;;10.40;85.90;;;;;;5052680;28;20029;-36
2021/09/22 01:43:04;;;;;;;11.27;6.70;;;10.30;86.30;;;;;;5051237;28;20362;-36
2021/09/22 01:45:30;;;;;;;10.77;6.38;;;10.30;86.40;;;;;;5052591;28;20481;-37
2021/09/22 01:47:56;;;;;;;12.30;7.53;;;;;;;;;;5051325;28;20028;-37
2021/09/22 01:50:22;;;;;;;10.55;6.78;;;10.20;86.70;;;;;;5050978;28;20028;-37
2021/09/22 01:52:50;;;;;;;13.07;7.28;;;10.20;87.00;;;;;;5052671;28;20032;-37
2021/09/22 01:55:21;;;;;;;9.23;6.82;;;10.30;86.70;;;;;;5052257;28;20032;-37
2021/09/22 01:57:49;;;;;;;9.98;7.10;;;10.20;86.50;;;;;;5052530;28;20021;-37
2021/09/22 02:00:15;;;;;;;11.80;7.22;;;10.10;86.80;;;;;;5052444;28;20029;-37
2021/09/22 02:02:41;;;;;;;11.32;6.95;;;10.10;86.90;;;;;;5052473;28;20033;-37
2021/09/22 02:05:07;;;;;;;18.70;7.60;;;10.10;87.20;;;;;;5052362;28;20025;-37
2021/09/22 02:07:32;;;;;;;11.68;7.57;;;10.20;87.00;;;;;;5052660;28;20108;-37
2021/09/22 02:09:59;;;;;;;13.10;7.55;;;10.30;86.70;;;;;;5052137;28;20071;-37
2021/09/22 02:12:29;;;;;;;13.45;7.07;;;10.20;86.50;;;;;;5052349;28;20025;-37
2021/09/22 02:14:55;;;;;;;12.10;7.82;;;10.20;86.60;;;;;;5050750;28;20489;-37
2021/09/22 02:17:21;;;;;;;14.57;8.07;;;10.20;86.60;;;;;;5051816;28;20108;-37
2021/09/22 02:19:47;;;;;;;12.73;7.60;;;10.30;86.40;;;;;;5052028;28;20143;-37
2021/09/22 02:22:13;;;;;;;10.00;6.80;;;10.20;86.50;;;;;;5051827;28;20036;-37
2021/09/22 02:24:43;;;;;;;11.35;7.07;;;10.30;86.10;;;;;;5052302;28;20022;-37
2021/09/22 02:27:13;;;;;;;11.10;7.47;;;10.20;86.30;;;;;;5050753;28;20017;-37
2021/09/22 02:29:40;;;;;;;13.65;7.88;;;10.20;86.60;;;;;;5052207;28;20013;-37
2021/09/22 02:32:06;;;;;;;10.48;6.57;;;10.20;86.40;;;;;;5051982;28;20119;-37
2021/09/22 02:34:32;;;;;;;11.65;8.00;;;10.20;86.60;;;;;;5051928;28;20029;-37
2021/09/22 02:36:58;;;;;;;11.93;6.88;;;10.20;86.70;;;;;;5052130;28;20025;-37
2021/09/22 02:39:24;;;;;;;9.52;6.55;;;10.20;86.60;;;;;;5051900;28;20167;-37
2021/09/22 02:41:49;;;;;;;12.43;7.22;;;10.20;86.60;;;;;;5051988;28;20124;-37
2021/09/22 02:44:15;;;;;;;10.43;6.57;;;10.10;86.60;;;;;;5051693;28;20040;-37
2021/09/22 02:46:41;;;;;;;9.38;7.63;;;10.10;86.60;;;;;;5051931;28;20155;-37
2021/09/22 02:49:07;;;;;;;12.80;6.35;;;10.10;86.70;;;;;;5051655;28;20028;-37
2021/09/22 02:51:32;;;;;;;12.20;6.45;;;10.10;86.50;;;;;;5055466;28;20354;-37
2021/09/22 02:53:59;;;;;;;12.52;7.32;;;9.90;86.60;;;;;;5055283;28;20370;-37
2021/09/22 02:56:24;;;;;;;9.98;7.28;;;9.80;86.70;;;;;;5055478;28;20133;-37
2021/09/22 02:58:50;;;;;;;13.60;6.53;;;9.80;86.70;;;;;;5055278;28;20057;-37
2021/09/22 03:01:16;;;;;;;13.98;7.22;;;9.80;86.90;;;;;;5054988;28;20036;-37
2021/09/22 03:03:42;;;;;;;14.73;8.00;;;9.80;87.20;;;;;;5054955;28;20414;-38
2021/09/22 03:06:08;;;;;;;12.30;7.30;;;9.80;87.50;;;;;;5054943;28;20033;-36
2021/09/22 03:08:34;;;;;;;13.15;7.38;;;9.80;87.80;;;;;;5055007;28;20021;-37
2021/09/22 03:11:05;;;;;;;12.68;7.60;;;9.80;87.90;;;;;;5055384;28;20031;-37
2021/09/22 03:13:31;;;;;;;11.13;7.00;;;9.80;87.90;;;;;;5055389;28;20028;-37
2021/09/22 03:15:56;;;;;;;14.90;7.88;;;9.80;87.80;;;;;;5054899;28;20029;-37
2021/09/22 03:18:22;;;;;;;9.48;6.97;;;9.80;87.90;;;;;;5054455;28;20052;-37
2021/09/22 03:20:48;;;;;;;11.70;8.05;;;9.80;87.90;;;;;;5054992;28;20021;-36
2021/09/22 03:23:13;;;;;;;13.07;7.82;;;9.80;87.90;;;;;;5054716;28;20024;-37
2021/09/22 03:25:39;;;;;;;14.80;8.02;;;9.80;87.80;;;;;;5054635;28;20028;-37
2021/09/22 03:28:04;;;;;;;8.70;7.10;;;9.70;87.70;;;;;;5054638;28;20546;-37
2021/09/22 03:30:30;;;;;;;14.07;6.85;;;9.70;87.70;;;;;;5054835;28;20071;-36
2021/09/22 03:32:56;;;;;;;9.20;7.22;;;9.70;87.70;;;;;;5053905;28;20025;-36
2021/09/22 03:35:21;;;;;;;15.10;8.05;;;9.60;88.00;;;;;;5054651;28;20034;-36
2021/09/22 03:37:47;;;;;;;14.95;8.13;;;9.60;88.20;;;;;;5054384;28;20503;-36
2021/09/22 03:40:13;;;;;;;15.98;9.30;;;9.60;88.40;;;;;;5054332;28;20482;-36
2021/09/22 03:42:39;;;;;;;12.60;8.15;;;9.70;88.40;;;;;;5054365;28;20139;-37
2021/09/22 03:45:05;;;;;;;14.15;9.57;;;9.70;88.40;;;;;;5053924;28;20151;-37
2021/09/22 03:47:30;;;;;;;13.23;7.45;;;9.60;88.20;;;;;;5054128;28;20108;-37
2021/09/22 03:49:57;;;;;;;13.52;8.30;;;9.70;88.20;;;;;;5052664;28;20477;-37
2021/09/22 03:52:22;;;;;;;13.80;8.07;;;9.70;88.40;;;;;;5053659;28;20163;-37
2021/09/22 03:54:48;;;;;;;12.30;8.55;;;9.70;88.30;;;;;;5053786;28;20056;-36
2021/09/22 03:57:13;;;;;;;19.63;8.20;;;9.80;88.10;;;;;;5053610;28;20064;-37
2021/09/22 03:59:39;;;;;;;14.52;8.07;;;9.80;88.10;;;;;;5053841;28;20031;-36
2021/09/22 04:02:05;;;;;;;17.63;7.80;;;9.80;87.90;;;;;;5053544;28;20024;-37
2021/09/22 04:04:31;;;;;;;11.48;8.23;;;9.80;87.80;;;;;;5053624;28;20058;-37
2021/09/22 04:06:56;;;;;;;11.60;8.10;;;9.80;87.70;;;;;;5053715;28;20029;-37
2021/09/22 04:09:22;;;;;;;11.85;8.18;;;9.80;87.50;;;;;;5053402;28;20082;-37
2021/09/22 04:11:48;;;;;;;15.27;7.95;;;9.80;87.50;;;;;;5052341;28;20113;-36
2021/09/22 04:14:13;;;;;;;18.45;8.20;;;9.80;87.30;;;;;;5053976;28;20029;-36
2021/09/22 04:16:39;;;;;;;11.43;7.85;;;9.70;87.40;;;;;;5054124;28;20469;-38
2021/09/22 04:19:05;;;;;;;13.68;8.30;;;9.70;87.50;;;;;;5053525;28;20041;-37
2021/09/22 04:21:30;;;;;;;14.95;8.40;;;9.70;87.60;;;;;;5053520;28;20025;-37
2021/09/22 04:23:57;;;;;;;13.55;7.35;;;9.70;87.50;;;;;;5053979;28;20029;-36
2021/09/22 04:26:23;;;;;;;19.08;8.95;;;9.60;87.50;;;;;;5053924;28;20029;-37
2021/09/22 04:28:49;;;;;;;12.55;7.68;;;9.60;87.50;;;;;;5053538;28;20060;-38
2021/09/22 04:31:14;;;;;;;10.75;7.72;;;9.70;87.50;;;;;;5053601;28;20496;-38
2021/09/22 04:33:40;;;;;;;14.77;8.00;;;9.70;87.40;;;;;;5053478;28;20384;-38
2021/09/22 04:36:06;;;;;;;19.85;10.63;;;9.70;87.30;;;;;;5053332;28;20323;-38
2021/09/22 04:38:32;;;;;;;18.92;8.73;;;9.60;87.30;;;;;;5053469;28;20029;-38
2021/09/22 04:40:58;;;;;;;16.65;8.75;;;9.50;87.40;;;;;;5053200;28;20400;-37
2021/09/22 04:43:23;;;;;;;13.02;7.95;;;9.60;87.70;;;;;;5053202;28;20017;-38
2021/09/22 04:45:49;;;;;;;18.55;9.18;;;9.60;87.70;;;;;;5053150;28;20031;-37
2021/09/22 04:48:15;;;;;;;17.75;8.00;;;9.50;87.80;;;;;;5053527;28;20491;-37
2021/09/22 04:50:41;;;;;;;13.98;9.07;;;9.50;88.30;;;;;;5051984;28;20025;-37
2021/09/22 04:53:07;;;;;;;16.05;9.40;;;9.60;88.20;;;;;;5053767;28;20029;-38
2021/09/22 04:55:33;;;;;;;18.73;8.60;;;9.60;88.10;;;;;;5051651;28;20043;-37
2021/09/22 04:57:58;;;;;;;17.42;8.55;;;9.50;88.00;;;;;;5052933;28;20061;-37
2021/09/22 05:00:24;;;;;;;12.48;9.20;;;9.60;88.20;;;;;;5052303;28;20074;-37
2021/09/22 05:02:50;;;;;;;15.90;9.60;;;9.60;88.20;;;;;;5053492;28;20033;-37
2021/09/22 05:05:15;;;;;;;16.45;8.48;;;9.60;88.20;;;;;;5053523;28;20060;-36
2021/09/22 05:07:41;;;;;;;18.42;10.63;;;9.60;87.90;;;;;;5052825;28;20017;-36
2021/09/22 05:10:08;;;;;;;13.00;8.85;;;9.50;88.00;;;;;;5053391;28;20508;-36
2021/09/22 05:12:33;;;;;;;14.05;9.20;;;9.50;88.10;;;;;;5052795;28;20056;-37
2021/09/22 05:14:59;;;;;;;14.65;8.70;;;9.50;88.10;;;;;;5051933;28;20032;-37
2021/09/22 05:17:25;;;;;;;13.23;8.30;;;9.50;87.80;;;;;;5052813;28;20104;-37
2021/09/22 05:19:50;;;;;;;18.17;9.88;;;9.50;88.00;;;;;;5053237;28;20029;-37
2021/09/22 05:22:16;;;;;;;15.02;9.32;;;9.60;87.90;;;;;;5052814;28;20028;-37
2021/09/22 05:24:43;;;;;;;16.20;9.25;;;9.70;87.80;;;;;;5051214;28;20021;-37
2021/09/22 05:27:09;;;;;;;13.85;9.35;;;9.80;87.50;;;;;;5051531;28;20104;-37
2021/09/22 05:29:36;;;;;;;17.17;10.18;;;9.80;87.20;;;;;;5053102;28;20496;-37
2021/09/22 05:32:02;;;;;;;17.73;10.55;;;9.80;86.80;;;;;;5051303;28;20033;-37
2021/09/22 05:34:27;;;;;;;17.50;10.18;;;9.80;86.90;;;;;;5052281;28;20021;-37
2021/09/22 05:36:53;;;;;;;18.63;10.43;;;9.90;86.50;;;;;;5052561;28;20082;-37
2021/09/22 05:39:18;;;;;;;16.80;10.73;;;9.90;86.90;;;;;;5052457;28;20029;-37
2021/09/22 05:41:44;;;;;;;13.93;9.10;;;9.90;86.70;;;;;;5052465;28;20025;-36
2021/09/22 05:44:10;;;;;;;20.40;10.27;;;10.00;86.10;;;;;;5052229;28;20079;-36
2021/09/22 05:46:36;;;;;;;24.60;14.18;;;9.90;86.50;;;;;;5052466;28;20429;-36
2021/09/22 05:49:05;;;;;;;45.22;21.92;;;9.90;86.10;;;;;;5052041;28;20036;-36
2021/09/22 05:51:32;;;;;;;55.38;24.63;;;9.80;86.60;;;;;;5052074;28;20100;-36
2021/09/22 05:53:58;;;;;;;50.53;27.13;;;9.80;86.90;;;;;;5052368;28;20219;-36
2021/09/22 05:56:24;;;;;;;35.25;18.02;;;10.10;86.70;;;;;;5052167;28;20109;-36
2021/09/22 05:58:50;;;;;;;27.80;13.27;;;10.00;86.30;;;;;;5052519;28;20334;-37
2021/09/22 06:01:15;;;;;;;22.23;11.93;;;10.00;86.50;;;;;;5052076;28;20033;-37
2021/09/22 06:03:41;;;;;;;16.50;9.63;;;10.10;86.50;;;;;;5052161;28;20052;-37
2021/09/22 06:06:07;;;;;;;15.27;10.63;;;10.20;86.10;;;;;;5052449;28;20024;-37
2021/09/22 06:08:32;;;;;;;16.77;9.43;;;10.30;86.10;;;;;;5052042;28;20516;-37
2021/09/22 06:10:58;;;;;;;18.98;9.95;;;10.30;85.80;;;;;;5052309;28;20530;-37
2021/09/22 06:13:24;;;;;;;12.38;8.70;;;10.30;86.20;;;;;;5052402;28;20033;-37
2021/09/22 06:15:53;;;;;;;14.35;9.10;;;10.40;86.00;;;;;;5050671;28;20087;-37
2021/09/22 06:18:19;;;;;;;19.80;9.98;;;10.50;85.00;;;;;;5051663;28;20057;-37
2021/09/22 06:20:45;;;;;;;21.58;10.52;;;10.40;85.40;;;;;;5051417;28;20110;-37
2021/09/22 06:23:11;;;;;;;24.33;11.27;;;10.60;84.80;;;;;;5051854;28;20032;-37
2021/09/22 06:25:37;;;;;;;18.45;9.80;;;10.70;84.50;;;;;;5055626;28;20024;-37
2021/09/22 06:28:02;;;;;;;22.60;9.88;;;10.80;84.50;;;;;;5055509;28;20100;-37
2021/09/22 06:30:28;;;;;;;18.08;10.50;;;11.00;84.10;;;;;;5055824;28;20053;-37
2021/09/22 06:32:54;;;;;;;17.73;11.00;;;11.00;83.70;;;;;;5054273;28;20021;-37
2021/09/22 06:35:20;;;;;;;22.45;11.18;;;11.10;83.20;;;;;;5055432;28;20048;-37
2021/09/22 06:37:48;;;;;;;22.48;11.25;;;11.10;83.20;;;;;;5054015;28;20373;-37
2021/09/22 06:40:17;;;;;;;17.65;10.27;;;11.10;83.30;;;;;;5055637;28;20031;-37
2021/09/22 06:42:42;;;;;;;21.88;11.13;;;11.30;82.80;;;;;;5055304;28;20063;-37
2021/09/22 06:45:09;;;;;;;19.77;11.63;;;11.30;82.90;;;;;;5055432;28;20032;-37
2021/09/22 06:47:34;;;;;;;21.73;11.27;;;11.30;82.50;;;;;;5054920;28;20029;-37
2021/09/22 06:50:00;;;;;;;20.85;11.27;;;11.30;82.70;;;;;;5055125;28;20354;-37
2021/09/22 06:52:27;;;;;;;17.98;10.80;;;11.30;82.70;;;;;;5053595;28;20029;-37
2021/09/22 06:54:53;;;;;;;16.67;10.70;;;11.30;83.40;;;;;;5055005;28;20033;-38
2021/09/22 06:57:18;;;;;;;20.02;9.95;;;11.30;83.90;;;;;;5053772;28;20021;-37
2021/09/22 06:59:44;;;;;;;20.10;9.75;;;11.40;83.10;;;;;;5054994;28;20036;-37
2021/09/22 07:02:10;;;;;;;21.08;10.18;;;11.60;82.60;;;;;;5054677;28;20140;-36
2021/09/22 07:04:35;;;;;;;25.90;10.98;;;11.30;83.40;;;;;;5053829;28;20025;-37
2021/09/22 07:07:01;;;;;;;22.45;12.27;;;11.40;83.20;;;;;;5055761;28;20166;-38
2021/09/22 07:09:27;;;;;;;22.77;12.95;;;11.40;83.80;;;;;;5055439;28;20047;-42
2021/09/22 07:11:52;;;;;;;25.02;13.43;;;11.60;83.80;;;;;;5054773;28;20052;-37
2021/09/22 07:14:18;;;;;;;26.30;13.73;;;11.80;82.90;;;;;;5054911;28;20107;-37
2021/09/22 07:16:44;;;;;;;28.05;14.15;;;11.90;82.50;;;;;;5055774;28;20044;-36
2021/09/22 07:19:09;;;;;;;19.50;13.00;;;12.20;81.90;;;;;;5054687;28;20412;-38
2021/09/22 07:21:35;;;;;;;25.42;13.02;;;12.30;81.50;;;;;;5055227;28;20025;-36
2021/09/22 07:24:01;;;;;;;25.17;13.45;;;12.10;81.70;;;;;;5054609;28;20127;-38
2021/09/22 07:26:27;;;;;;;19.67;12.68;;;12.20;81.70;;;;;;5054649;28;20032;-37
2021/09/22 07:28:53;;;;;;;23.65;13.43;;;12.40;81.20;;;;;;5053941;28;20029;-37
2021/09/22 07:31:18;;;;;;;31.30;14.98;;;12.50;80.80;;;;;;5055208;28;20372;-38
2021/09/22 07:33:44;;;;;;;33.10;13.80;;;12.80;80.40;;;;;;5055614;28;20480;-38
2021/09/22 07:36:10;;;;;;;29.00;15.70;;;12.60;80.50;;;;;;5053668;28;20013;-38
2021/09/22 07:38:36;;;;;;;27.67;14.43;;;12.70;80.30;;;;;;5052370;28;20025;-37
2021/09/22 07:41:02;;;;;;;33.85;15.30;;;12.90;80.10;;;;;;5054104;28;20025;-37
2021/09/22 07:43:28;;;;;;;31.50;16.17;;;13.20;79.30;;;;;;5054370;28;20025;-37
2021/09/22 07:45:54;;;;;;;29.17;15.65;;;13.50;78.00;;;;;;5052958;28;20033;-37
2021/09/22 07:48:21;;;;;;;30.98;17.40;;;13.60;77.50;;;;;;5054258;28;20032;-37
2021/09/22 07:50:48;;;;;;;29.63;14.05;;;13.50;77.90;;;;;;5054874;28;20036;-38
2021/09/22 07:53:14;;;;;;;33.58;15.38;;;13.80;77.10;;;;;;5052929;28;20339;-36
2021/09/22 07:55:39;;;;;;;27.80;13.98;;;14.00;76.50;;;;;;5055125;28;20036;-36
2021/09/22 07:58:05;;;;;;;25.23;15.77;;;14.20;76.30;;;;;;5053306;28;20059;-37
2021/09/22 08:00:31;;;;;;;31.88;15.82;;;14.50;75.00;;;;;;5054391;28;20029;-37
2021/09/22 08:02:58;;;;;;;30.05;15.95;;;14.70;74.80;;;;;;5054128;28;20031;-37
2021/09/22 08:05:25;;;;;;;34.13;18.75;;;14.70;74.90;;;;;;5054125;28;20473;-37
2021/09/22 08:07:51;;;;;;;35.33;18.52;;;14.80;74.60;;;;;;5054057;28;20439;-37
2021/09/22 08:10:17;;;;;;;27.58;15.68;;;14.90;74.70;;;;;;5054045;28;20059;-39
2021/09/22 08:12:46;;;;;;;28.88;16.45;;;15.00;73.70;;;;;;5052496;28;20060;-36
2021/09/22 08:15:12;;;;;;;24.67;14.70;;;15.70;71.60;;;;;;5053864;28;20017;-37
2021/09/22 08:17:37;;;;;;;25.60;15.13;;;16.40;69.20;;;;;;5053761;28;20503;-36
2021/09/22 08:20:04;;;;;;;31.50;15.57;;;16.60;67.70;;;;;;5053536;28;20025;-36
2021/09/22 08:22:29;;;;;;;23.83;14.63;;;16.00;69.10;;;;;;5053105;28;20021;-36
2021/09/22 08:24:55;;;;;;;32.70;16.55;;;16.10;68.90;;;;;;5053741;28;20029;-36
2021/09/22 08:27:21;;;;;;;30.20;17.08;;;16.60;67.50;;;;;;5053630;28;20027;-36
2021/09/22 08:29:46;;;;;;;35.95;18.13;;;17.00;65.10;;;;;;5054183;28;20021;-36
2021/09/22 08:32:12;;;;;;;31.85;16.30;;;16.30;67.40;;;;;;5053547;28;20029;-37
2021/09/22 08:34:39;;;;;;;28.35;15.95;;;17.10;65.20;;;;;;5054016;28;20024;-37
2021/09/22 08:37:05;;;;;;;30.33;16.13;;;17.90;62.90;;;;;;5052803;28;20127;-37
2021/09/22 08:39:32;;;;;;;31.17;16.52;;;17.20;64.70;;;;;;5053552;28;20441;-37
2021/09/22 08:42:02;;;;;;;22.27;15.38;;;17.10;66.50;;;;;;5053524;28;20112;-37
2021/09/22 08:44:28;;;;;;;33.87;18.77;;;17.30;65.10;;;;;;5052944;28;20021;-37
2021/09/22 08:46:54;;;;;;;29.33;17.15;;;17.70;64.30;;;;;;5052097;28;20078;-37
2021/09/22 08:49:20;;;;;;;32.08;17.75;;;17.60;64.10;;;;;;5052394;28;20093;-37
2021/09/22 08:51:46;;;;;;;31.23;18.55;;;17.40;65.00;;;;;;5052698;28;20028;-37
2021/09/22 08:54:13;;;;;;;35.97;17.80;;;17.50;64.60;;;;;;5053317;28;20028;-37
2021/09/22 08:56:40;;;;;;;31.05;15.90;;;18.10;63.10;;;;;;5052817;28;20029;-38
2021/09/22 08:59:07;;;;;;;35.80;15.38;;;18.10;62.60;;;;;;5052888;28;20041;-37
2021/09/22 09:01:34;;;;;;;32.10;16.55;;;17.80;63.70;;;;;;5052031;28;20413;-37
2021/09/22 09:04:21;;;;;;;31.13;15.18;;;18.00;63.30;;;;;;5052337;28;20029;-38
2021/09/22 09:06:54;;;;;;;30.70;14.75;;;18.50;62.40;;;;;;5052394;28;20025;-38
2021/09/22 09:09:20;;;;;;;28.98;15.15;;;18.70;62.20;;;;;;5051398;28;20025;-37
2021/09/22 09:11:45;;;;;;;29.48;14.88;;;19.00;61.60;;;;;;5052532;28;20028;-38
2021/09/22 09:14:13;;;;;;;29.02;14.02;;;18.70;62.80;;;;;;5052085;28;20029;-38
2021/09/22 09:16:48;;;;;;;21.00;12.20;;;19.20;61.50;;;;;;5051554;28;20440;-38
2021/09/22 09:19:19;;;;;;;22.92;13.40;;;19.90;58.20;;;;;;5051484;28;20080;-38
2021/09/22 09:21:59;;;;;;;27.45;15.40;;;19.70;58.40;;;;;;5051598;28;20055;-38
2021/09/22 09:24:48;;;;;;;21.65;12.88;;;19.20;58.10;;;;;;5051224;28;20041;-38
2021/09/22 09:27:20;;;;;;;21.25;14.30;;;19.30;57.40;;;;;;5051476;28;20491;-38
2021/09/22 09:29:50;;;;;;;22.98;14.32;;;19.70;56.00;;;;;;5051450;28;20095;-38
2021/09/22 09:32:22;;;;;;;22.45;11.93;;;20.10;54.40;;;;;;5049733;28;20074;-37
2021/09/22 09:35:05;;;;;;;18.30;12.32;;;19.80;52.90;;;;;;5049402;28;20024;-37
2021/09/22 09:37:37;;;;;;;24.10;12.93;;;19.10;54.10;;;;;;5050593;28;20064;-37
2021/09/22 09:40:22;;;;;;;23.77;12.70;;;18.50;57.10;;;;;;5051152;28;20029;-36
2021/09/22 09:42:50;;;;;;;17.40;11.07;;;19.20;54.40;;;;;;5050111;28;20110;-37
2021/09/22 09:45:19;;;;;;;20.25;11.93;;;19.60;52.60;;;;;;5051443;28;20139;-37
2021/09/22 09:48:05;;;;;;;20.17;11.45;;;20.30;51.50;;;;;;5051487;28;20465;-38
2021/09/22 09:50:41;;;;;;;20.00;11.18;;;20.20;50.00;;;;;;5051911;28;20041;-37
2021/09/22 09:53:08;;;;;;;18.17;10.52;;;19.20;52.30;;;;;;5050659;28;20065;-37
2021/09/22 09:55:37;;;;;;;25.33;11.35;;;19.60;52.20;;;;;;5052107;28;20530;-37
2021/09/22 09:58:03;;;;;;;19.98;11.73;;;20.00;51.30;;;;;;5049708;28;20361;-37
2021/09/22 10:00:38;;;;;;;24.83;11.77;;;20.30;49.70;;;;;;5053749;28;20029;-38
2021/09/22 10:03:11;;;;;;;18.35;11.00;;;20.20;50.00;;;;;;5055712;28;20465;-37
2021/09/22 10:05:36;;;;;;;22.13;11.02;;;20.80;48.60;;;;;;5055360;28;20440;-38
2021/09/22 10:08:02;;;;;;;18.83;10.15;;;20.70;49.10;;;;;;5055590;28;20099;-38
2021/09/22 10:10:28;;;;;;;17.17;10.35;;;21.30;47.80;;;;;;5055490;28;20035;-38
2021/09/22 10:12:57;;;;;;;15.80;10.60;;;21.70;46.00;;;;;;5055194;28;20504;-37
2021/09/22 10:15:23;;;;;;;14.23;10.00;;;21.80;46.00;;;;;;5054995;28;20029;-38
2021/09/22 10:17:50;;;;;;;12.55;9.70;;;21.90;45.00;;;;;;5055298;28;20103;-37
2021/09/22 10:20:19;;;;;;;12.55;8.63;;;22.90;43.20;;;;;;5055539;28;20060;-39
2021/09/22 10:22:46;;;;;;;24.60;9.88;;;21.30;45.80;;;;;;5055479;28;20032;-38
2021/09/22 10:25:15;;;;;;;15.13;9.25;;;21.50;45.90;;;;;;5053850;28;20029;-37
2021/09/22 10:27:46;;;;;;;13.98;8.60;;;22.40;44.20;;;;;;5055479;28;20446;-38
2021/09/22 10:30:14;;;;;;;15.63;11.13;;;22.70;42.80;;;;;;5054039;28;20036;-38
2021/09/22 10:32:43;;;;;;;13.25;9.52;;;21.60;44.60;;;;;;5055458;28;20137;-38
2021/09/22 10:35:36;;;;;;;18.13;10.10;;;21.60;43.80;;;;;;5055244;28;20021;-37
2021/09/22 10:38:20;;;;;;;14.25;9.38;;;20.80;47.00;;;;;;5054510;28;20052;-37
2021/09/22 10:40:59;;;;;;;12.40;9.35;;;21.80;45.10;;;;;;5055332;28;20087;-37
2021/09/22 10:43:30;;;;;;;18.08;11.05;;;22.00;44.20;;;;;;5055053;28;20104;-38
2021/09/22 10:46:09;;;;;;;18.40;12.40;;;21.30;45.70;;;;;;5055349;28;20056;-36
2021/09/22 10:48:42;;;;;;;14.32;10.18;;;21.50;45.90;;;;;;5055441;28;20017;-36
2021/09/22 10:51:10;;;;;;;15.32;10.02;;;22.00;44.90;;;;;;5056028;28;20095;-37
2021/09/22 10:53:43;;;;;;;18.25;11.68;;;23.40;42.00;;;;;;5054047;28;20047;-37
2021/09/22 10:56:12;;;;;;;15.90;9.13;;;23.30;42.30;;;;;;5055193;28;20104;-37
2021/09/22 10:58:42;;;;;;;16.38;7.38;;;21.80;44.10;;;;;;5054003;28;20408;-37
2021/09/22 11:01:09;;;;;;;10.52;7.63;;;22.10;43.20;;;;;;5053012;28;20044;-38
2021/09/22 11:04:05;;;;;;;14.98;8.75;;;23.10;41.40;;;;;;5054262;28;20100;-37
2021/09/22 11:06:45;;;;;;;9.02;6.47;;;23.10;41.80;;;;;;5053933;28;20056;-37
2021/09/22 11:09:17;;;;;;;11.30;6.75;;;21.70;42.60;;;;;;5054430;28;20483;-38
2021/09/22 11:12:03;;;;;;;11.50;6.38;;;21.70;42.70;;;;;;5051786;28;20068;-38
2021/09/22 11:14:47;;;;;;;14.88;7.57;;;22.60;41.50;;;;;;5054940;28;20029;-38
2021/09/22 11:17:40;;;;;;;16.60;7.85;;;22.00;42.80;;;;;;5054692;28;20123;-37
2021/09/22 11:20:08;;;;;;;13.10;8.73;;;21.40;43.00;;;;;;5053931;28;20047;-37
2021/09/22 11:22:36;;;;;;;13.65;6.90;;;21.60;43.20;;;;;;5054287;28;20032;-36
2021/09/22 11:25:07;;;;;;;10.68;6.95;;;22.00;42.40;;;;;;5053886;28;20043;-40
2021/09/22 11:27:34;;;;;;;16.80;9.00;;;22.40;42.50;;;;;;5053844;28;20021;-37
2021/09/22 11:30:03;;;;;;;15.75;8.63;;;21.60;44.50;;;;;;5053726;28;20020;-37
2021/09/22 11:32:36;;;;;;;11.88;8.10;;;22.00;43.60;;;;;;5054383;28;20044;-38
2021/09/22 11:35:12;;;;;;;18.85;8.63;;;22.70;42.70;;;;;;5054719;28;20025;-38
2021/09/22 11:37:46;;;;;;;19.27;8.27;;;23.00;41.40;;;;;;5054115;28;20090;-37
2021/09/22 11:40:26;;;;;;;15.73;7.72;;;22.30;42.50;;;;;;5053719;28;20033;-37
2021/09/22 11:43:01;;;;;;;12.45;6.93;;;22.40;42.10;;;;;;5052539;28;20025;-37
2021/09/22 11:45:32;;;;;;;12.73;6.93;;;21.40;43.90;;;;;;5053719;28;20029;-37
2021/09/22 11:47:58;;;;;;;16.05;8.50;;;21.10;45.60;;;;;;5052520;28;20025;-36
2021/09/22 11:50:30;;;;;;;15.88;8.35;;;22.60;43.20;;;;;;5054161;28;20104;-38
2021/09/22 11:52:57;;;;;;;20.65;9.68;;;23.10;41.40;;;;;;5053583;28;20361;-36
2021/09/22 11:55:23;;;;;;;10.80;7.28;;;23.00;42.50;;;;;;5053783;28;20490;-38
2021/09/22 11:57:49;;;;;;;12.32;7.35;;;23.20;40.90;;;;;;5053471;28;20021;-36
2021/09/22 12:00:22;;;;;;;19.05;9.30;;;23.30;40.90;;;;;;5053709;28;20039;-37
2021/09/22 12:02:47;;;;;;;19.20;10.75;;;23.70;39.40;;;;;;5053705;28;20432;-37
2021/09/22 12:05:15;;;;;;;15.57;9.20;;;22.40;43.10;;;;;;5053266;28;20025;-37
2021/09/22 12:07:42;;;;;;;13.85;9.35;;;22.50;43.10;;;;;;5035656;28;20025;-37
2021/09/22 12:10:08;;;;;;;18.77;9.25;;;22.40;43.50;;;;;;5053463;28;20102;-38
2021/09/22 12:12:34;;;;;;;21.50;10.80;;;23.00;42.50;;;;;;5054101;28;20021;-38
2021/09/22 12:15:00;;;;;;;15.63;9.38;;;23.40;41.30;;;;;;5053246;28;20174;-38
2021/09/22 12:17:33;;;;;;;15.90;8.63;;;24.00;40.60;;;;;;5051664;28;20131;-38
2021/09/22 12:20:00;;;;;;;17.83;9.10;;;24.40;39.30;;;;;;5053143;28;20048;-38
2021/09/22 12:22:36;;;;;;;18.23;9.82;;;23.70;40.90;;;;;;5052770;28;20078;-38
2021/09/22 12:25:04;;;;;;;15.00;9.18;;;23.50;41.60;;;;;;5053246;28;20060;-37
2021/09/22 12:27:32;;;;;;;14.50;8.87;;;23.10;42.10;;;;;;5053153;28;20049;-38
2021/09/22 12:30:05;;;;;;;12.88;8.95;;;22.10;44.90;;;;;;5053110;28;20495;-37
2021/09/22 12:32:33;;;;;;;13.52;8.10;;;21.00;47.80;;;;;;5051829;28;20494;-37
2021/09/22 12:35:07;;;;;;;10.50;8.10;;;20.90;47.80;;;;;;5051744;28;20385;-38
2021/09/22 12:37:34;;;;;;;17.15;8.25;;;21.00;47.90;;;;;;5053160;28;20017;-38